sensor_id;sensor_type;location;lat;lon;timestamp;P1;durP1;ratioP1;P2;durP2;ratioP2
38851;SDS011;24605;50.092;9.182;2023-01-01T00:01:39;11.05;;;5.20;;
38851;SDS011;24605;50.092;9.182;2023-01-01T00:04:10;9.23;;;4.68;;
38851;SDS011;24605;50.092;9.182;2023-01-01T00:06:37;8.88;;;4.70;;
38851;SDS011;24605;50.092;9.182;2023-01-01T00:24:49;16.23;;;10.05;;
38851;SDS011;24605;50.092;9.182;2023-01-01T00:27:16;16.65;;;9.93;;
38851;SDS011;24605;50.092;9.182;2023-01-01T00:37:41;16.00;;;10.52;;
38851;SDS011;24605;50.092;9.182;2023-01-01T00:40:09;18.30;;;11.23;;
38851;SDS011;24605;50.092;9.182;2023-01-01T00:42:37;21.08;;;11.88;;
38851;SDS011;24605;50.092;9.182;2023-01-01T00:45:06;18.75;;;10.77;;
38851;SDS011;24605;50.092;9.182;2023-01-01T00:47:33;16.70;;;10.70;;
38851;SDS011;24605;50.092;9.182;2023-01-01T00:50:00;20.45;;;10.70;;
38851;SDS011;24605;50.092;9.182;2023-01-01T00:52:27;20.65;;;11.65;;
38851;SDS011;24605;50.092;9.182;2023-01-01T00:54:53;19.10;;;11.52;;
38851;SDS011;24605;50.092;9.182;2023-01-01T00:57:21;19.30;;;10.95;;
38851;SDS011;24605;50.092;9.182;2023-01-01T00:59:47;19.73;;;11.02;;
38851;SDS011;24605;50.092;9.182;2023-01-01T01:02:14;17.73;;;11.50;;
38851;SDS011;24605;50.092;9.182;2023-01-01T01:04:41;19.70;;;11.20;;
38851;SDS011;24605;50.092;9.182;2023-01-01T01:07:07;19.25;;;10.77;;
38851;SDS011;24605;50.092;9.182;2023-01-01T01:09:34;20.95;;;9.98;;
38851;SDS011;24605;50.092;9.182;2023-01-01T01:12:00;17.63;;;10.93;;
38851;SDS011;24605;50.092;9.182;2023-01-01T01:14:28;17.10;;;9.73;;
38851;SDS011;24605;50.092;9.182;2023-01-01T01:16:55;14.80;;;9.30;;
38851;SDS011;24605;50.092;9.182;2023-01-01T01:19:21;16.13;;;9.63;;
38851;SDS011;24605;50.092;9.182;2023-01-01T01:21:49;17.63;;;10.07;;
38851;SDS011;24605;50.092;9.182;2023-01-01T01:24:16;14.82;;;9.73;;
38851;SDS011;24605;50.092;9.182;2023-01-01T01:26:43;18.35;;;9.55;;
38851;SDS011;24605;50.092;9.182;2023-01-01T01:29:09;14.40;;;9.15;;
38851;SDS011;24605;50.092;9.182;2023-01-01T01:31:37;15.93;;;9.07;;
38851;SDS011;24605;50.092;9.182;2023-01-01T01:34:04;18.80;;;9.18;;
38851;SDS011;24605;50.092;9.182;2023-01-01T01:36:31;15.63;;;8.73;;
38851;SDS011;24605;50.092;9.182;2023-01-01T01:38:57;18.75;;;9.45;;
38851;SDS011;24605;50.092;9.182;2023-01-01T01:41:24;12.52;;;7.88;;
38851;SDS011;24605;50.092;9.182;2023-01-01T01:43:53;15.10;;;8.45;;
38851;SDS011;24605;50.092;9.182;2023-01-01T01:46:24;15.13;;;8.57;;
38851;SDS011;24605;50.092;9.182;2023-01-01T01:48:56;15.75;;;8.63;;
38851;SDS011;24605;50.092;9.182;2023-01-01T01:51:29;13.95;;;8.68;;
38851;SDS011;24605;50.092;9.182;2023-01-01T01:54:01;16.55;;;8.05;;
38851;SDS011;24605;50.092;9.182;2023-01-01T01:56:33;13.68;;;8.25;;
38851;SDS011;24605;50.092;9.182;2023-01-01T01:59:07;14.43;;;8.20;;
38851;SDS011;24605;50.092;9.182;2023-01-01T02:01:34;14.52;;;8.15;;
38851;SDS011;24605;50.092;9.182;2023-01-01T02:04:04;12.77;;;7.53;;
38851;SDS011;24605;50.092;9.182;2023-01-01T02:06:32;15.63;;;7.68;;
38851;SDS011;24605;50.092;9.182;2023-01-01T02:09:01;16.88;;;8.23;;
38851;SDS011;24605;50.092;9.182;2023-01-01T02:11:30;13.00;;;6.90;;
38851;SDS011;24605;50.092;9.182;2023-01-01T02:13:58;11.10;;;7.10;;
38851;SDS011;24605;50.092;9.182;2023-01-01T02:16:35;11.80;;;6.40;;
38851;SDS011;24605;50.092;9.182;2023-01-01T02:19:09;12.63;;;7.03;;
38851;SDS011;24605;50.092;9.182;2023-01-01T02:21:48;13.05;;;6.32;;
38851;SDS011;24605;50.092;9.182;2023-01-01T02:24:35;10.95;;;6.35;;
38851;SDS011;24605;50.092;9.182;2023-01-01T02:27:15;13.60;;;6.05;;
38851;SDS011;24605;50.092;9.182;2023-01-01T02:29:52;9.68;;;5.10;;
38851;SDS011;24605;50.092;9.182;2023-01-01T02:32:23;13.07;;;5.28;;
38851;SDS011;24605;50.092;9.182;2023-01-01T02:34:56;11.10;;;4.90;;
38851;SDS011;24605;50.092;9.182;2023-01-01T02:37:44;9.23;;;5.07;;
38851;SDS011;24605;50.092;9.182;2023-01-01T02:40:12;10.60;;;5.70;;
38851;SDS011;24605;50.092;9.182;2023-01-01T02:42:39;10.20;;;5.40;;
38851;SDS011;24605;50.092;9.182;2023-01-01T02:45:08;8.55;;;5.05;;
38851;SDS011;24605;50.092;9.182;2023-01-01T02:47:37;9.52;;;5.63;;
38851;SDS011;24605;50.092;9.182;2023-01-01T02:50:06;10.57;;;5.30;;
38851;SDS011;24605;50.092;9.182;2023-01-01T02:52:51;10.43;;;5.75;;
38851;SDS011;24605;50.092;9.182;2023-01-01T02:55:38;9.43;;;5.07;;
38851;SDS011;24605;50.092;9.182;2023-01-01T02:58:15;10.15;;;5.53;;
38851;SDS011;24605;50.092;9.182;2023-01-01T03:01:08;10.35;;;5.82;;
38851;SDS011;24605;50.092;9.182;2023-01-01T03:03:45;10.85;;;5.07;;
38851;SDS011;24605;50.092;9.182;2023-01-01T03:06:23;9.05;;;5.40;;
38851;SDS011;24605;50.092;9.182;2023-01-01T03:09:01;12.02;;;5.38;;
38851;SDS011;24605;50.092;9.182;2023-01-01T03:11:38;8.70;;;4.88;;
38851;SDS011;24605;50.092;9.182;2023-01-01T03:14:15;9.02;;;4.75;;
38851;SDS011;24605;50.092;9.182;2023-01-01T03:16:47;9.98;;;5.13;;
38851;SDS011;24605;50.092;9.182;2023-01-01T03:19:18;10.30;;;4.95;;
38851;SDS011;24605;50.092;9.182;2023-01-01T03:21:48;9.98;;;4.70;;
38851;SDS011;24605;50.092;9.182;2023-01-01T03:24:18;8.10;;;4.53;;
38851;SDS011;24605;50.092;9.182;2023-01-01T03:26:49;7.95;;;4.45;;
38851;SDS011;24605;50.092;9.182;2023-01-01T03:29:20;7.53;;;4.10;;
38851;SDS011;24605;50.092;9.182;2023-01-01T03:31:49;10.73;;;4.88;;
38851;SDS011;24605;50.092;9.182;2023-01-01T03:34:21;8.93;;;4.28;;
38851;SDS011;24605;50.092;9.182;2023-01-01T03:36:53;8.20;;;4.20;;
38851;SDS011;24605;50.092;9.182;2023-01-01T03:39:25;11.40;;;4.22;;
38851;SDS011;24605;50.092;9.182;2023-01-01T03:41:57;8.05;;;4.10;;
38851;SDS011;24605;50.092;9.182;2023-01-01T03:44:34;9.32;;;4.93;;
38851;SDS011;24605;50.092;9.182;2023-01-01T03:47:07;10.07;;;4.45;;
38851;SDS011;24605;50.092;9.182;2023-01-01T03:49:33;8.27;;;3.97;;
38851;SDS011;24605;50.092;9.182;2023-01-01T03:52:03;8.70;;;4.45;;
38851;SDS011;24605;50.092;9.182;2023-01-01T03:54:43;7.55;;;3.97;;
38851;SDS011;24605;50.092;9.182;2023-01-01T03:57:16;6.55;;;3.35;;
38851;SDS011;24605;50.092;9.182;2023-01-01T03:59:49;7.28;;;3.85;;
38851;SDS011;24605;50.092;9.182;2023-01-01T04:02:24;8.40;;;3.80;;
38851;SDS011;24605;50.092;9.182;2023-01-01T04:04:53;7.00;;;3.60;;
38851;SDS011;24605;50.092;9.182;2023-01-01T04:07:21;8.93;;;4.25;;
38851;SDS011;24605;50.092;9.182;2023-01-01T04:09:49;7.10;;;3.80;;
38851;SDS011;24605;50.092;9.182;2023-01-01T04:12:20;7.35;;;3.85;;
38851;SDS011;24605;50.092;9.182;2023-01-01T04:14:47;8.30;;;3.80;;
38851;SDS011;24605;50.092;9.182;2023-01-01T04:17:14;8.95;;;3.65;;
38851;SDS011;24605;50.092;9.182;2023-01-01T04:19:41;9.05;;;4.00;;
38851;SDS011;24605;50.092;9.182;2023-01-01T04:22:08;7.15;;;3.60;;
38851;SDS011;24605;50.092;9.182;2023-01-01T04:24:35;7.35;;;3.80;;
38851;SDS011;24605;50.092;9.182;2023-01-01T04:27:01;9.68;;;3.55;;
38851;SDS011;24605;50.092;9.182;2023-01-01T04:29:28;7.95;;;3.55;;
38851;SDS011;24605;50.092;9.182;2023-01-01T04:31:54;6.63;;;3.63;;
38851;SDS011;24605;50.092;9.182;2023-01-01T04:34:21;6.60;;;3.50;;
38851;SDS011;24605;50.092;9.182;2023-01-01T04:36:48;6.22;;;3.08;;
38851;SDS011;24605;50.092;9.182;2023-01-01T04:39:15;6.72;;;3.70;;
38851;SDS011;24605;50.092;9.182;2023-01-01T04:41:41;5.45;;;3.00;;
38851;SDS011;24605;50.092;9.182;2023-01-01T04:44:08;6.60;;;3.40;;
38851;SDS011;24605;50.092;9.182;2023-01-01T04:46:34;7.68;;;3.90;;
38851;SDS011;24605;50.092;9.182;2023-01-01T04:49:01;8.15;;;3.50;;
38851;SDS011;24605;50.092;9.182;2023-01-01T04:51:28;5.30;;;2.83;;
38851;SDS011;24605;50.092;9.182;2023-01-01T04:53:57;6.50;;;3.15;;
38851;SDS011;24605;50.092;9.182;2023-01-01T04:56:24;7.18;;;3.42;;
38851;SDS011;24605;50.092;9.182;2023-01-01T04:58:50;7.20;;;3.38;;
38851;SDS011;24605;50.092;9.182;2023-01-01T05:01:18;8.80;;;4.13;;
38851;SDS011;24605;50.092;9.182;2023-01-01T05:03:46;8.32;;;3.55;;
38851;SDS011;24605;50.092;9.182;2023-01-01T05:06:13;6.97;;;3.42;;
38851;SDS011;24605;50.092;9.182;2023-01-01T05:08:41;6.30;;;3.17;;
38851;SDS011;24605;50.092;9.182;2023-01-01T05:11:11;9.25;;;4.00;;
38851;SDS011;24605;50.092;9.182;2023-01-01T05:13:40;37.25;;;29.48;;
38851;SDS011;24605;50.092;9.182;2023-01-01T05:16:09;5.50;;;3.35;;
38851;SDS011;24605;50.092;9.182;2023-01-01T05:18:37;6.63;;;3.28;;
38851;SDS011;24605;50.092;9.182;2023-01-01T05:21:05;9.38;;;3.28;;
38851;SDS011;24605;50.092;9.182;2023-01-01T05:23:33;8.80;;;3.30;;
38851;SDS011;24605;50.092;9.182;2023-01-01T05:26:06;8.05;;;3.63;;
38851;SDS011;24605;50.092;9.182;2023-01-01T05:31:04;8.05;;;3.10;;
38851;SDS011;24605;50.092;9.182;2023-01-01T05:33:31;7.03;;;3.55;;
38851;SDS011;24605;50.092;9.182;2023-01-01T05:35:58;5.68;;;3.20;;
38851;SDS011;24605;50.092;9.182;2023-01-01T05:38:25;7.70;;;3.30;;
38851;SDS011;24605;50.092;9.182;2023-01-01T05:40:52;7.03;;;3.30;;
38851;SDS011;24605;50.092;9.182;2023-01-01T05:43:18;7.50;;;3.67;;
38851;SDS011;24605;50.092;9.182;2023-01-01T05:45:46;9.88;;;3.47;;
38851;SDS011;24605;50.092;9.182;2023-01-01T05:48:13;8.02;;;3.95;;
38851;SDS011;24605;50.092;9.182;2023-01-01T05:50:39;6.72;;;3.25;;
38851;SDS011;24605;50.092;9.182;2023-01-01T05:53:06;7.63;;;3.28;;
38851;SDS011;24605;50.092;9.182;2023-01-01T05:55:32;6.72;;;3.22;;
38851;SDS011;24605;50.092;9.182;2023-01-01T05:57:59;6.07;;;3.13;;
38851;SDS011;24605;50.092;9.182;2023-01-01T06:00:25;8.05;;;3.50;;
38851;SDS011;24605;50.092;9.182;2023-01-01T06:02:53;7.80;;;3.17;;
38851;SDS011;24605;50.092;9.182;2023-01-01T06:05:20;6.60;;;3.15;;
38851;SDS011;24605;50.092;9.182;2023-01-01T06:07:47;5.90;;;3.10;;
38851;SDS011;24605;50.092;9.182;2023-01-01T06:10:14;8.00;;;2.95;;
38851;SDS011;24605;50.092;9.182;2023-01-01T06:12:41;8.32;;;3.00;;
38851;SDS011;24605;50.092;9.182;2023-01-01T06:15:07;6.63;;;3.10;;
38851;SDS011;24605;50.092;9.182;2023-01-01T06:17:34;6.75;;;3.05;;
38851;SDS011;24605;50.092;9.182;2023-01-01T06:20:02;6.57;;;3.03;;
38851;SDS011;24605;50.092;9.182;2023-01-01T06:22:29;5.50;;;2.97;;
38851;SDS011;24605;50.092;9.182;2023-01-01T06:24:55;8.70;;;3.03;;
38851;SDS011;24605;50.092;9.182;2023-01-01T06:27:22;6.05;;;2.63;;
38851;SDS011;24605;50.092;9.182;2023-01-01T06:29:49;9.52;;;3.05;;
38851;SDS011;24605;50.092;9.182;2023-01-01T06:32:15;7.57;;;3.15;;
38851;SDS011;24605;50.092;9.182;2023-01-01T06:34:41;8.07;;;3.03;;
38851;SDS011;24605;50.092;9.182;2023-01-01T06:37:09;8.07;;;3.20;;
38851;SDS011;24605;50.092;9.182;2023-01-01T06:39:36;7.85;;;3.20;;
38851;SDS011;24605;50.092;9.182;2023-01-01T06:42:02;5.72;;;3.10;;
38851;SDS011;24605;50.092;9.182;2023-01-01T06:44:29;6.53;;;2.80;;
38851;SDS011;24605;50.092;9.182;2023-01-01T06:46:55;10.63;;;3.35;;
38851;SDS011;24605;50.092;9.182;2023-01-01T06:49:22;7.97;;;2.88;;
38851;SDS011;24605;50.092;9.182;2023-01-01T06:51:48;10.07;;;3.42;;
38851;SDS011;24605;50.092;9.182;2023-01-01T06:54:16;6.75;;;3.00;;
38851;SDS011;24605;50.092;9.182;2023-01-01T06:56:43;6.47;;;3.13;;
38851;SDS011;24605;50.092;9.182;2023-01-01T06:59:09;7.85;;;3.10;;
38851;SDS011;24605;50.092;9.182;2023-01-01T07:01:36;5.95;;;3.03;;
38851;SDS011;24605;50.092;9.182;2023-01-01T07:04:05;8.68;;;3.20;;
38851;SDS011;24605;50.092;9.182;2023-01-01T07:06:33;7.78;;;3.65;;
38851;SDS011;24605;50.092;9.182;2023-01-01T07:09:00;6.85;;;2.90;;
38851;SDS011;24605;50.092;9.182;2023-01-01T07:11:28;6.93;;;3.38;;
38851;SDS011;24605;50.092;9.182;2023-01-01T07:13:55;9.13;;;2.80;;
38851;SDS011;24605;50.092;9.182;2023-01-01T07:16:21;8.80;;;3.22;;
38851;SDS011;24605;50.092;9.182;2023-01-01T07:18:48;6.65;;;2.78;;
38851;SDS011;24605;50.092;9.182;2023-01-01T07:21:23;8.20;;;2.90;;
38851;SDS011;24605;50.092;9.182;2023-01-01T07:23:52;8.90;;;2.78;;
38851;SDS011;24605;50.092;9.182;2023-01-01T07:26:20;7.40;;;2.90;;
38851;SDS011;24605;50.092;9.182;2023-01-01T07:28:48;7.70;;;3.03;;
38851;SDS011;24605;50.092;9.182;2023-01-01T07:31:15;7.18;;;3.42;;
38851;SDS011;24605;50.092;9.182;2023-01-01T07:33:41;8.60;;;2.55;;
38851;SDS011;24605;50.092;9.182;2023-01-01T07:36:08;7.75;;;2.88;;
38851;SDS011;24605;50.092;9.182;2023-01-01T07:38:34;8.25;;;3.13;;
38851;SDS011;24605;50.092;9.182;2023-01-01T07:41:01;5.78;;;2.65;;
38851;SDS011;24605;50.092;9.182;2023-01-01T07:43:27;9.38;;;3.22;;
38851;SDS011;24605;50.092;9.182;2023-01-01T07:45:55;5.65;;;2.78;;
38851;SDS011;24605;50.092;9.182;2023-01-01T07:48:22;9.60;;;3.13;;
38851;SDS011;24605;50.092;9.182;2023-01-01T07:50:49;6.43;;;2.50;;
38851;SDS011;24605;50.092;9.182;2023-01-01T07:53:16;7.03;;;3.25;;
38851;SDS011;24605;50.092;9.182;2023-01-01T07:55:42;8.32;;;3.38;;
38851;SDS011;24605;50.092;9.182;2023-01-01T07:58:09;8.75;;;3.85;;
38851;SDS011;24605;50.092;9.182;2023-01-01T08:00:37;6.97;;;2.85;;
38851;SDS011;24605;50.092;9.182;2023-01-01T08:03:05;7.90;;;3.00;;
38851;SDS011;24605;50.092;9.182;2023-01-01T08:05:32;7.07;;;3.25;;
38851;SDS011;24605;50.092;9.182;2023-01-01T08:07:59;12.38;;;3.53;;
38851;SDS011;24605;50.092;9.182;2023-01-01T08:10:26;8.93;;;3.10;;
38851;SDS011;24605;50.092;9.182;2023-01-01T08:12:57;10.73;;;2.90;;
38851;SDS011;24605;50.092;9.182;2023-01-01T08:15:24;7.75;;;2.42;;
38851;SDS011;24605;50.092;9.182;2023-01-01T08:17:54;8.73;;;3.03;;
38851;SDS011;24605;50.092;9.182;2023-01-01T08:20:22;10.82;;;2.75;;
38851;SDS011;24605;50.092;9.182;2023-01-01T08:22:49;7.15;;;2.40;;
38851;SDS011;24605;50.092;9.182;2023-01-01T08:25:15;5.45;;;2.20;;
38851;SDS011;24605;50.092;9.182;2023-01-01T08:27:42;6.75;;;2.30;;
38851;SDS011;24605;50.092;9.182;2023-01-01T08:30:11;9.23;;;2.28;;
38851;SDS011;24605;50.092;9.182;2023-01-01T08:32:38;7.90;;;2.33;;
38851;SDS011;24605;50.092;9.182;2023-01-01T08:35:05;7.53;;;2.60;;
38851;SDS011;24605;50.092;9.182;2023-01-01T08:37:33;6.95;;;2.40;;
38851;SDS011;24605;50.092;9.182;2023-01-01T08:40:00;10.65;;;2.88;;
38851;SDS011;24605;50.092;9.182;2023-01-01T08:42:27;10.68;;;2.47;;
38851;SDS011;24605;50.092;9.182;2023-01-01T08:44:53;9.07;;;2.50;;
38851;SDS011;24605;50.092;9.182;2023-01-01T08:47:20;7.25;;;2.30;;
38851;SDS011;24605;50.092;9.182;2023-01-01T08:49:48;6.22;;;2.38;;
38851;SDS011;24605;50.092;9.182;2023-01-01T08:52:15;6.70;;;2.47;;
38851;SDS011;24605;50.092;9.182;2023-01-01T08:54:43;7.85;;;2.58;;
38851;SDS011;24605;50.092;9.182;2023-01-01T08:57:10;9.02;;;2.30;;
38851;SDS011;24605;50.092;9.182;2023-01-01T08:59:37;6.57;;;3.00;;
38851;SDS011;24605;50.092;9.182;2023-01-01T09:02:03;7.50;;;2.65;;
38851;SDS011;24605;50.092;9.182;2023-01-01T09:04:31;9.68;;;2.63;;
38851;SDS011;24605;50.092;9.182;2023-01-01T09:06:57;6.30;;;2.70;;
38851;SDS011;24605;50.092;9.182;2023-01-01T09:09:24;8.75;;;2.60;;
38851;SDS011;24605;50.092;9.182;2023-01-01T09:11:53;7.32;;;2.42;;
38851;SDS011;24605;50.092;9.182;2023-01-01T09:14:20;9.80;;;2.42;;
38851;SDS011;24605;50.092;9.182;2023-01-01T09:16:48;6.10;;;2.72;;
38851;SDS011;24605;50.092;9.182;2023-01-01T09:19:14;6.85;;;2.25;;
38851;SDS011;24605;50.092;9.182;2023-01-01T09:21:41;7.80;;;2.53;;
38851;SDS011;24605;50.092;9.182;2023-01-01T09:24:08;12.65;;;3.47;;
38851;SDS011;24605;50.092;9.182;2023-01-01T09:26:35;12.25;;;2.75;;
38851;SDS011;24605;50.092;9.182;2023-01-01T09:29:03;7.85;;;2.83;;
38851;SDS011;24605;50.092;9.182;2023-01-01T09:31:31;7.30;;;2.92;;
38851;SDS011;24605;50.092;9.182;2023-01-01T09:33:58;7.10;;;2.67;;
38851;SDS011;24605;50.092;9.182;2023-01-01T09:36:28;6.25;;;2.65;;
38851;SDS011;24605;50.092;9.182;2023-01-01T09:38:56;9.88;;;3.10;;
38851;SDS011;24605;50.092;9.182;2023-01-01T09:41:24;8.55;;;2.55;;
38851;SDS011;24605;50.092;9.182;2023-01-01T09:44:00;9.27;;;2.95;;
38851;SDS011;24605;50.092;9.182;2023-01-01T09:46:34;7.60;;;2.28;;
38851;SDS011;24605;50.092;9.182;2023-01-01T09:49:01;10.25;;;2.22;;
38851;SDS011;24605;50.092;9.182;2023-01-01T09:51:34;10.70;;;2.38;;
38851;SDS011;24605;50.092;9.182;2023-01-01T09:54:05;7.68;;;2.72;;
38851;SDS011;24605;50.092;9.182;2023-01-01T09:56:41;8.07;;;2.20;;
38851;SDS011;24605;50.092;9.182;2023-01-01T09:59:12;8.07;;;2.28;;
38851;SDS011;24605;50.092;9.182;2023-01-01T10:01:40;7.43;;;2.55;;
38851;SDS011;24605;50.092;9.182;2023-01-01T10:04:20;11.40;;;2.40;;
38851;SDS011;24605;50.092;9.182;2023-01-01T10:06:58;7.70;;;2.45;;
38851;SDS011;24605;50.092;9.182;2023-01-01T10:09:32;15.73;;;2.75;;
38851;SDS011;24605;50.092;9.182;2023-01-01T10:12:10;5.60;;;2.10;;
38851;SDS011;24605;50.092;9.182;2023-01-01T10:14:47;7.40;;;2.10;;
38851;SDS011;24605;50.092;9.182;2023-01-01T10:17:18;9.07;;;2.17;;
38851;SDS011;24605;50.092;9.182;2023-01-01T10:20:00;10.18;;;2.45;;
38851;SDS011;24605;50.092;9.182;2023-01-01T10:22:33;7.20;;;2.40;;
38851;SDS011;24605;50.092;9.182;2023-01-01T10:25:05;17.35;;;2.70;;
38851;SDS011;24605;50.092;9.182;2023-01-01T10:27:43;6.53;;;2.35;;
38851;SDS011;24605;50.092;9.182;2023-01-01T10:30:13;10.00;;;3.67;;
38851;SDS011;24605;50.092;9.182;2023-01-01T10:32:42;7.65;;;1.98;;
38851;SDS011;24605;50.092;9.182;2023-01-01T10:35:14;16.10;;;5.38;;
38851;SDS011;24605;50.092;9.182;2023-01-01T10:37:42;10.98;;;2.95;;
38851;SDS011;24605;50.092;9.182;2023-01-01T10:40:18;10.35;;;2.55;;
38851;SDS011;24605;50.092;9.182;2023-01-01T10:42:47;8.02;;;2.13;;
38851;SDS011;24605;50.092;9.182;2023-01-01T10:45:17;8.98;;;2.10;;
38851;SDS011;24605;50.092;9.182;2023-01-01T10:50:39;7.35;;;2.08;;
38851;SDS011;24605;50.092;9.182;2023-01-01T10:53:17;13.15;;;2.33;;
38851;SDS011;24605;50.092;9.182;2023-01-01T10:55:47;8.05;;;2.00;;
38851;SDS011;24605;50.092;9.182;2023-01-01T10:58:24;9.82;;;2.47;;
38851;SDS011;24605;50.092;9.182;2023-01-01T11:01:03;7.35;;;1.90;;
38851;SDS011;24605;50.092;9.182;2023-01-01T11:03:31;7.55;;;2.17;;
38851;SDS011;24605;50.092;9.182;2023-01-01T11:05:59;6.35;;;1.92;;
38851;SDS011;24605;50.092;9.182;2023-01-01T11:08:28;8.77;;;2.20;;
38851;SDS011;24605;50.092;9.182;2023-01-01T11:10:56;13.05;;;2.65;;
38851;SDS011;24605;50.092;9.182;2023-01-01T11:13:25;15.50;;;2.20;;
38851;SDS011;24605;50.092;9.182;2023-01-01T11:15:53;5.45;;;1.70;;
38851;SDS011;24605;50.092;9.182;2023-01-01T11:18:22;11.20;;;2.35;;
38851;SDS011;24605;50.092;9.182;2023-01-01T11:20:53;9.50;;;2.72;;
38851;SDS011;24605;50.092;9.182;2023-01-01T11:23:29;6.13;;;2.50;;
38851;SDS011;24605;50.092;9.182;2023-01-01T11:26:01;8.68;;;2.80;;
38851;SDS011;24605;50.092;9.182;2023-01-01T11:28:30;8.38;;;2.33;;
38851;SDS011;24605;50.092;9.182;2023-01-01T11:31:01;11.10;;;2.33;;
38851;SDS011;24605;50.092;9.182;2023-01-01T11:33:33;15.85;;;4.68;;
38851;SDS011;24605;50.092;9.182;2023-01-01T11:36:02;15.20;;;3.13;;
38851;SDS011;24605;50.092;9.182;2023-01-01T11:38:30;11.23;;;2.45;;
38851;SDS011;24605;50.092;9.182;2023-01-01T11:41:00;8.88;;;2.65;;
38851;SDS011;24605;50.092;9.182;2023-01-01T11:43:30;11.75;;;2.72;;
38851;SDS011;24605;50.092;9.182;2023-01-01T11:46:05;10.83;;;2.57;;
38851;SDS011;24605;50.092;9.182;2023-01-01T11:48:39;7.45;;;2.38;;
38851;SDS011;24605;50.092;9.182;2023-01-01T11:51:08;9.65;;;2.63;;
38851;SDS011;24605;50.092;9.182;2023-01-01T11:53:37;10.75;;;2.20;;
38851;SDS011;24605;50.092;9.182;2023-01-01T11:56:07;8.82;;;2.38;;
38851;SDS011;24605;50.092;9.182;2023-01-01T12:01:11;9.95;;;2.25;;
38851;SDS011;24605;50.092;9.182;2023-01-01T12:03:46;5.53;;;2.15;;
38851;SDS011;24605;50.092;9.182;2023-01-01T12:06:18;11.33;;;2.53;;
38851;SDS011;24605;50.092;9.182;2023-01-01T12:08:50;8.48;;;2.28;;
38851;SDS011;24605;50.092;9.182;2023-01-01T12:11:24;10.82;;;2.53;;
38851;SDS011;24605;50.092;9.182;2023-01-01T12:13:57;8.52;;;2.75;;
38851;SDS011;24605;50.092;9.182;2023-01-01T12:16:40;13.10;;;2.38;;
38851;SDS011;24605;50.092;9.182;2023-01-01T12:19:17;10.68;;;2.35;;
38851;SDS011;24605;50.092;9.182;2023-01-01T12:21:47;7.38;;;2.30;;
38851;SDS011;24605;50.092;9.182;2023-01-01T12:24:18;7.10;;;2.42;;
38851;SDS011;24605;50.092;9.182;2023-01-01T12:26:49;7.32;;;2.30;;
38851;SDS011;24605;50.092;9.182;2023-01-01T12:29:29;9.40;;;2.85;;
38851;SDS011;24605;50.092;9.182;2023-01-01T12:32:09;7.90;;;2.55;;
38851;SDS011;24605;50.092;9.182;2023-01-01T12:34:45;7.78;;;3.35;;
38851;SDS011;24605;50.092;9.182;2023-01-01T12:37:21;8.77;;;3.05;;
38851;SDS011;24605;50.092;9.182;2023-01-01T12:43:03;11.82;;;2.72;;
38851;SDS011;24605;50.092;9.182;2023-01-01T12:45:42;11.02;;;2.95;;
38851;SDS011;24605;50.092;9.182;2023-01-01T12:48:29;8.82;;;2.35;;
38851;SDS011;24605;50.092;9.182;2023-01-01T12:51:10;12.65;;;3.15;;
38851;SDS011;24605;50.092;9.182;2023-01-01T12:53:45;9.57;;;2.40;;
38851;SDS011;24605;50.092;9.182;2023-01-01T12:56:19;14.18;;;2.67;;
38851;SDS011;24605;50.092;9.182;2023-01-01T12:58:55;8.07;;;2.25;;
38851;SDS011;24605;50.092;9.182;2023-01-01T13:01:24;7.13;;;2.13;;
38851;SDS011;24605;50.092;9.182;2023-01-01T13:03:54;7.68;;;2.67;;
38851;SDS011;24605;50.092;9.182;2023-01-01T13:06:25;10.90;;;2.50;;
38851;SDS011;24605;50.092;9.182;2023-01-01T13:08:58;9.20;;;2.30;;
38851;SDS011;24605;50.092;9.182;2023-01-01T13:13:58;9.85;;;2.65;;
38851;SDS011;24605;50.092;9.182;2023-01-01T13:16:31;6.97;;;2.10;;
38851;SDS011;24605;50.092;9.182;2023-01-01T13:19:00;6.28;;;2.20;;
38851;SDS011;24605;50.092;9.182;2023-01-01T13:21:28;9.25;;;2.50;;
38851;SDS011;24605;50.092;9.182;2023-01-01T13:24:01;8.45;;;2.53;;
38851;SDS011;24605;50.092;9.182;2023-01-01T13:26:39;9.52;;;2.95;;
38851;SDS011;24605;50.092;9.182;2023-01-01T13:32:03;8.82;;;2.17;;
38851;SDS011;24605;50.092;9.182;2023-01-01T13:34:32;5.72;;;2.05;;
38851;SDS011;24605;50.092;9.182;2023-01-01T13:43:06;9.40;;;2.63;;
38851;SDS011;24605;50.092;9.182;2023-01-01T13:45:43;7.88;;;2.50;;
38851;SDS011;24605;50.092;9.182;2023-01-01T13:48:20;8.30;;;2.60;;
38851;SDS011;24605;50.092;9.182;2023-01-01T13:51:13;11.95;;;3.20;;
38851;SDS011;24605;50.092;9.182;2023-01-01T13:54:04;8.10;;;2.60;;
38851;SDS011;24605;50.092;9.182;2023-01-01T13:56:47;12.23;;;2.88;;
38851;SDS011;24605;50.092;9.182;2023-01-01T14:02:21;6.28;;;2.15;;
38851;SDS011;24605;50.092;9.182;2023-01-01T14:04:52;10.95;;;3.50;;
38851;SDS011;24605;50.092;9.182;2023-01-01T14:07:26;10.63;;;2.80;;
38851;SDS011;24605;50.092;9.182;2023-01-01T14:10:12;9.30;;;3.10;;
38851;SDS011;24605;50.092;9.182;2023-01-01T14:12:41;10.98;;;2.75;;
38851;SDS011;24605;50.092;9.182;2023-01-01T14:15:13;7.05;;;2.22;;
38851;SDS011;24605;50.092;9.182;2023-01-01T14:17:41;8.63;;;2.97;;
38851;SDS011;24605;50.092;9.182;2023-01-01T14:20:12;11.82;;;3.00;;
38851;SDS011;24605;50.092;9.182;2023-01-01T14:22:43;11.35;;;4.03;;
38851;SDS011;24605;50.092;9.182;2023-01-01T14:25:14;10.13;;;3.05;;
38851;SDS011;24605;50.092;9.182;2023-01-01T14:27:43;8.45;;;2.83;;
38851;SDS011;24605;50.092;9.182;2023-01-01T14:30:16;13.13;;;3.10;;
38851;SDS011;24605;50.092;9.182;2023-01-01T14:32:44;9.73;;;3.20;;
38851;SDS011;24605;50.092;9.182;2023-01-01T14:35:12;10.50;;;3.13;;
38851;SDS011;24605;50.092;9.182;2023-01-01T14:37:40;8.15;;;2.92;;
38851;SDS011;24605;50.092;9.182;2023-01-01T14:40:14;11.85;;;3.83;;
38851;SDS011;24605;50.092;9.182;2023-01-01T14:42:44;11.93;;;4.60;;
38851;SDS011;24605;50.092;9.182;2023-01-01T14:45:14;11.27;;;5.28;;
38851;SDS011;24605;50.092;9.182;2023-01-01T14:47:45;11.52;;;3.45;;
38851;SDS011;24605;50.092;9.182;2023-01-01T14:50:18;10.20;;;3.28;;
38851;SDS011;24605;50.092;9.182;2023-01-01T14:52:50;10.70;;;2.95;;
38851;SDS011;24605;50.092;9.182;2023-01-01T14:55:20;10.13;;;2.92;;
38851;SDS011;24605;50.092;9.182;2023-01-01T14:57:48;10.48;;;3.13;;
38851;SDS011;24605;50.092;9.182;2023-01-01T15:00:21;10.32;;;3.00;;
38851;SDS011;24605;50.092;9.182;2023-01-01T15:02:49;9.40;;;2.85;;
38851;SDS011;24605;50.092;9.182;2023-01-01T15:05:25;13.75;;;2.78;;
38851;SDS011;24605;50.092;9.182;2023-01-01T15:07:54;11.77;;;3.33;;
38851;SDS011;24605;50.092;9.182;2023-01-01T15:10:24;13.95;;;3.15;;
38851;SDS011;24605;50.092;9.182;2023-01-01T15:12:51;8.98;;;3.15;;
38851;SDS011;24605;50.092;9.182;2023-01-01T15:18:04;8.70;;;3.42;;
38851;SDS011;24605;50.092;9.182;2023-01-01T15:20:31;7.95;;;3.10;;
38851;SDS011;24605;50.092;9.182;2023-01-01T15:23:00;12.55;;;3.17;;
38851;SDS011;24605;50.092;9.182;2023-01-01T15:25:29;8.85;;;2.92;;
38851;SDS011;24605;50.092;9.182;2023-01-01T15:28:00;10.38;;;2.60;;
38851;SDS011;24605;50.092;9.182;2023-01-01T15:30:27;8.90;;;2.55;;
38851;SDS011;24605;50.092;9.182;2023-01-01T15:32:59;14.70;;;3.00;;
38851;SDS011;24605;50.092;9.182;2023-01-01T15:35:32;6.63;;;2.60;;
38851;SDS011;24605;50.092;9.182;2023-01-01T15:38:01;11.20;;;2.83;;
38851;SDS011;24605;50.092;9.182;2023-01-01T15:40:36;11.30;;;2.88;;
38851;SDS011;24605;50.092;9.182;2023-01-01T15:43:10;10.75;;;2.92;;
38851;SDS011;24605;50.092;9.182;2023-01-01T15:45:39;8.40;;;2.70;;
38851;SDS011;24605;50.092;9.182;2023-01-01T15:48:18;11.82;;;3.60;;
38851;SDS011;24605;50.092;9.182;2023-01-01T15:51:00;7.47;;;2.60;;
38851;SDS011;24605;50.092;9.182;2023-01-01T15:53:32;7.85;;;2.13;;